VG48 weather

Clear Moore Corp. Kenneth Moore Heliport
Yorktown, Virginia, United States

Public forecast

Using degrees Fahrenheit for public forecast. Weather courtesy of forecast.io.

METAR (pilot weather report)

Closest report is Newport News Williamsburg International Airport, 2.7 nm (4.9 km) SSW. Retrieved 2019/09/21 06:54 UTC (54 minutes ago):

KPHF 210654Z AUTO 21003KT 10SM CLR 15/13 A3027 RMK AO2 SLP249 T01500128

TAF (pilot weather forecast)

Closest forecast is Newport News Williamsburg International Airport, 2.7 nm (4.9 km) SSW. Retrieved 2019/09/21 06:42 UTC (1 hour ago):

TAF KPHF 210540Z 2106/2206 20005KT P6SM SKC FM211400 23008KT P6SM SKC FM212200 19006KT P6SM SKC